Time;durP1;ratioP1;P1;durP2;ratioP2;P2;SDS_P1;SDS_P2;PMS_P1;PMS_P2;Temp;Humidity;BMP_temperature;BMP_pressure;BME280_temperature;BME280_humidity;BME280_pressure;Samples;Min_cycle;Max_cycle;Signal;HPM_P1;HPM_P2
2022/11/16 00:00:20;;;;;;;;;;;;;;;;;;2391209;54;939;-72
2022/11/16 00:02:53;;;;;;;;;;;;;;;;;;2386929;62;1700;-72
2022/11/16 00:05:27;;;;;;;;;;;;;;;;;;2391370;62;1215;-72
2022/11/16 00:08:00;;;;;;;;;;;;;;;;;;2386793;62;1924;-73
2022/11/16 00:10:36;;;;;;;;;;;;;;;;;;2389869;54;899;-72
2022/11/16 00:13:09;;;;;;;;;;;;;;;;;;2390728;62;975;-72
2022/11/16 00:15:42;;;;;;;;;;;;;;;;;;2390893;54;1182;-72
2022/11/16 00:18:15;;;;;;;;;;;;;;;;;;2391018;62;1030;-72
2022/11/16 00:20:48;;;;;;;;;;;;;;;;;;2386889;62;1031;-72
2022/11/16 00:23:22;;;;;;;;;;;;;;;;;;2391364;62;1038;-72
2022/11/16 00:26:03;;;;;;;;;;;;;;;;;;2391281;62;1217;-72
2022/11/16 00:28:36;;;;;;;;;;;;;;;;;;2391452;62;1984;-72
2022/11/16 00:31:10;;;;;;;;;;;;;;;;;;2386944;62;1801;-72
2022/11/16 00:33:44;;;;;;;;;;;;;;;;;;2391383;62;882;-72
2022/11/16 00:36:17;;;;;;;;;;;;;;;;;;2390931;54;1209;-72
2022/11/16 00:38:53;;;;;;;;;;;;;;;;;;2391264;54;1050;-72
2022/11/16 00:41:29;;;;;;;;;;;;;;;;;;2391320;62;1045;-72
2022/11/16 00:44:02;;;;;;;;;;;;;;;;;;2391244;62;1131;-72
2022/11/16 00:46:35;;;;;;;;;;;;;;;;;;2391242;55;1022;-72
2022/11/16 00:49:08;;;;;;;;;;;;;;;;;;2390984;62;1965;-71
2022/11/16 00:51:42;;;;;;;;;;;;;;;;;;2391467;62;1038;-72
2022/11/16 00:54:16;;;;;;;;;;;;;;;;;;2391114;62;1232;-72
2022/11/16 00:56:52;;;;;;;;;;;;;;;;;;2391335;54;842;-72
2022/11/16 00:59:26;;;;;;;;;;;;;;;;;;2391136;62;891;-72
2022/11/16 01:01:59;;;;;;;;;;;;;;;;;;2391407;62;1054;-72
2022/11/16 01:04:32;;;;;;;;;;;;;;;;;;2391385;62;1238;-72
2022/11/16 01:07:05;;;;;;;;;;;;;;;;;;2391320;62;1046;-72
2022/11/16 01:09:38;;;;;;;;;;;;;;;;;;2391045;62;1928;-72
2022/11/16 01:12:11;;;;;;;;;;;;;;;;;;2391011;62;1058;-72
2022/11/16 01:14:46;;;;;;;;;;;;;;;;;;2391497;62;1201;-72
2022/11/16 01:17:19;;;;;;;;;;;;;;;;;;2391479;54;1061;-72
2022/11/16 01:19:52;;;;;;;;;;;;;;;;;;2391322;62;1022;-72
2022/11/16 01:22:25;;;;;;;;;;;;;;;;;;2391354;55;1219;-72
2022/11/16 01:24:58;;;;;;;;;;;;;;;;;;2391737;62;1253;-72
2022/11/16 01:27:34;;;;;;;;;;;;;;;;;;2391771;62;1932;-72
2022/11/16 01:30:08;;;;;;;;;;;;;;;;;;2391557;54;1053;-72
2022/11/16 01:32:41;;;;;;;;;;;;;;;;;;2391590;54;1034;-72
2022/11/16 01:35:17;;;;;;;;;;;;;;;;;;2391204;54;1248;-72
2022/11/16 01:37:50;;;;;;;;;;;;;;;;;;2391483;62;1015;-72
2022/11/16 01:40:23;;;;;;;;;;;;;;;;;;2391450;54;839;-72
2022/11/16 01:42:59;;;;;;;;;;;;;;;;;;2391490;62;996;-72
2022/11/16 01:45:36;;;;;;;;;;;;;;;;;;2391515;54;1119;-72
2022/11/16 01:48:11;;;;;;;;;;;;;;;;;;2387152;62;1919;-72
2022/11/16 01:50:45;;;;;;;;;;;;;;;;;;2391378;62;1030;-72
2022/11/16 01:53:18;;;;;;;;;;;;;;;;;;2391482;62;938;-72
2022/11/16 01:55:52;;;;;;;;;;;;;;;;;;2391350;54;1206;-72
2022/11/16 01:58:29;;;;;;;;;;;;;;;;;;2391535;54;947;-72
2022/11/16 02:01:02;;;;;;;;;;;;;;;;;;2391572;62;1038;-72
2022/11/16 02:03:35;;;;;;;;;;;;;;;;;;2391180;62;1023;-72
2022/11/16 02:06:17;;;;;;;;;;;;;;;;;;2391471;62;1210;-72
2022/11/16 02:11:55;;;;;;;;;;;;;;;;;;2391491;62;777;-72
2022/11/16 02:14:39;;;;;;;;;;;;;;;;;;2390931;54;1138;-72
2022/11/16 02:17:19;;;;;;;;;;;;;;;;;;2391233;54;983;-71
2022/11/16 02:20:02;;;;;;;;;;;;;;;;;;2391109;62;797;-72
2022/11/16 02:22:43;;;;;;;;;;;;;;;;;;2391492;62;971;-71
2022/11/16 02:25:22;;;;;;;;;;;;;;;;;;2391558;62;1178;-72
2022/11/16 02:28:12;;;;;;;;;;;;;;;;;;2391552;62;1916;-71
2022/11/16 02:30:50;;;;;;;;;;;;;;;;;;2388853;62;1602;-72
2022/11/16 02:33:27;;;;;;;;;;;;;;;;;;2387576;62;995;-72
2022/11/16 02:36:02;;;;;;;;;;;;;;;;;;2391519;54;1216;-72
2022/11/16 02:38:38;;;;;;;;;;;;;;;;;;2391586;62;1030;-71
2022/11/16 02:41:13;;;;;;;;;;;;;;;;;;2387087;62;2069;-71
2022/11/16 02:43:49;;;;;;;;;;;;;;;;;;2391585;62;1036;-72
2022/11/16 02:46:29;;;;;;;;;;;;;;;;;;2391381;54;1159;-71
2022/11/16 02:49:04;;;;;;;;;;;;;;;;;;2391431;62;1936;-71
2022/11/16 02:51:38;;;;;;;;;;;;;;;;;;2391633;62;1018;-71
2022/11/16 02:54:12;;;;;;;;;;;;;;;;;;2391138;54;1229;-71
2022/11/16 02:56:50;;;;;;;;;;;;;;;;;;2391619;62;1047;-72
2022/11/16 02:59:25;;;;;;;;;;;;;;;;;;2391018;62;954;-71
2022/11/16 03:02:04;;;;;;;;;;;;;;;;;;2391547;54;1057;-71
2022/11/16 03:04:39;;;;;;;;;;;;;;;;;;2391359;62;1177;-72
2022/11/16 03:07:14;;;;;;;;;;;;;;;;;;2387336;62;1598;-72
2022/11/16 03:09:50;;;;;;;;;;;;;;;;;;2391075;62;1919;-72
2022/11/16 03:12:22;;;;;;;;;;;;;;;;;;2391591;62;1022;-72
2022/11/16 03:14:57;;;;;;;;;;;;;;;;;;2391251;62;1130;-72
2022/11/16 03:17:38;;;;;;;;;;;;;;;;;;2391327;62;1046;-72
2022/11/16 03:20:14;;;;;;;;;;;;;;;;;;2391432;62;1344;-72
2022/11/16 03:22:49;;;;;;;;;;;;;;;;;;2391281;54;1002;-72
2022/11/16 03:25:23;;;;;;;;;;;;;;;;;;2391469;62;1218;-72
2022/11/16 03:28:04;;;;;;;;;;;;;;;;;;2391405;62;1012;-72
2022/11/16 03:30:38;;;;;;;;;;;;;;;;;;2391298;54;1031;-72
2022/11/16 03:33:18;;;;;;;;;;;;;;;;;;2391369;54;1027;-72
2022/11/16 03:46:32;;;;;;;;;;;;;;;;;;2387846;54;1502;-72
2022/11/16 03:49:08;;;;;;;;;;;;;;;;;;2389783;62;1975;-71
2022/11/16 03:51:41;;;;;;;;;;;;;;;;;;2391327;62;1034;-72
2022/11/16 03:54:14;;;;;;;;;;;;;;;;;;2391683;62;1155;-72
2022/11/16 03:56:47;;;;;;;;;;;;;;;;;;2391188;62;1120;-72
2022/11/16 03:59:20;;;;;;;;;;;;;;;;;;2391455;62;975;-72
2022/11/16 04:01:54;;;;;;;;;;;;;;;;;;2391535;62;1006;-72
2022/11/16 04:28:12;;;;;;;;;;;;;;;;;;2391974;62;967;-72
2022/11/16 04:29:28;;;;;;;;;;;;;;;;;;2391115;62;1924;-73
2022/11/16 04:37:51;;;;;;;;;;;;;;;;;;2391929;62;921;-74
2022/11/16 04:40:26;;;;;;;;;;;;;;;;;;2392015;62;947;-74
2022/11/16 04:43:00;;;;;;;;;;;;;;;;;;2392560;62;1078;-74
2022/11/16 04:48:23;;;;;;;;;;;;;;;;;;2392383;62;1946;-74
2022/11/16 04:50:56;;;;;;;;;;;;;;;;;;2392371;62;1004;-73
2022/11/16 04:53:32;;;;;;;;;;;;;;;;;;2392074;62;963;-73
2022/11/16 04:56:05;;;;;;;;;;;;;;;;;;2392372;62;1256;-73
2022/11/16 04:58:38;;;;;;;;;;;;;;;;;;2392774;62;1027;-74
2022/11/16 05:01:12;;;;;;;;;;;;;;;;;;2389503;62;1012;-74
2022/11/16 05:03:45;;;;;;;;;;;;;;;;;;2393362;54;1043;-74
2022/11/16 05:06:18;;;;;;;;;;;;;;;;;;2393493;62;1243;-74
2022/11/16 05:08:54;;;;;;;;;;;;;;;;;;2393735;62;1895;-74
2022/11/16 05:11:27;;;;;;;;;;;;;;;;;;2394531;62;1162;-74
2022/11/16 05:14:00;;;;;;;;;;;;;;;;;;2394402;54;1052;-74
2022/11/16 05:16:33;;;;;;;;;;;;;;;;;;2394050;62;1192;-74
2022/11/16 05:21:56;;;;;;;;;;;;;;;;;;2394059;62;972;-74
2022/11/16 05:24:37;;;;;;;;;;;;;;;;;;2393278;62;1226;-73
2022/11/16 05:27:12;;;;;;;;;;;;;;;;;;2394035;62;1009;-74
2022/11/16 05:29:45;;;;;;;;;;;;;;;;;;2394439;54;1978;-74
2022/11/16 05:32:19;;;;;;;;;;;;;;;;;;2393447;62;1007;-74
2022/11/16 05:34:52;;;;;;;;;;;;;;;;;;2393558;54;1209;-74
2022/11/16 05:37:26;;;;;;;;;;;;;;;;;;2393317;62;1008;-74
2022/11/16 05:40:02;;;;;;;;;;;;;;;;;;2393944;62;1054;-74
2022/11/16 05:42:35;;;;;;;;;;;;;;;;;;2389705;62;1086;-74
2022/11/16 05:45:08;;;;;;;;;;;;;;;;;;2389715;62;1221;-73
2022/11/16 05:47:42;;;;;;;;;;;;;;;;;;2394046;62;825;-74
2022/11/16 05:50:15;;;;;;;;;;;;;;;;;;2393564;54;1926;-74
2022/11/16 05:52:48;;;;;;;;;;;;;;;;;;2393323;54;1026;-74
2022/11/16 05:55:24;;;;;;;;;;;;;;;;;;2392646;54;1229;-74
2022/11/16 05:57:57;;;;;;;;;;;;;;;;;;2392677;62;999;-74
2022/11/16 06:00:30;;;;;;;;;;;;;;;;;;2388501;62;1422;-74
2022/11/16 06:03:03;;;;;;;;;;;;;;;;;;2392699;62;1046;-74
2022/11/16 06:05:36;;;;;;;;;;;;;;;;;;2392824;62;1168;-74
2022/11/16 06:08:10;;;;;;;;;;;;;;;;;;2392821;62;1031;-74
2022/11/16 06:10:45;;;;;;;;;;;;;;;;;;2392400;62;1972;-74
2022/11/16 06:13:19;;;;;;;;;;;;;;;;;;2392339;62;1017;-74
2022/11/16 06:15:52;;;;;;;;;;;;;;;;;;2392427;62;1272;-74
2022/11/16 06:18:25;;;;;;;;;;;;;;;;;;2391807;62;1034;-74
2022/11/16 06:20:58;;;;;;;;;;;;;;;;;;2388145;62;1009;-74
2022/11/16 06:23:31;;;;;;;;;;;;;;;;;;2392345;54;875;-73
2022/11/16 06:26:07;;;;;;;;;;;;;;;;;;2392468;62;1241;-74
2022/11/16 06:28:41;;;;;;;;;;;;;;;;;;2392474;62;1020;-73
2022/11/16 06:31:14;;;;;;;;;;;;;;;;;;2392622;62;1939;-74
2022/11/16 06:33:47;;;;;;;;;;;;;;;;;;2392111;62;1058;-73
2022/11/16 06:36:20;;;;;;;;;;;;;;;;;;2392262;54;1275;-73
2022/11/16 06:38:53;;;;;;;;;;;;;;;;;;2392245;54;855;-74
2022/11/16 06:41:30;;;;;;;;;;;;;;;;;;2392247;54;974;-73
2022/11/16 06:44:04;;;;;;;;;;;;;;;;;;2392488;62;1031;-74
2022/11/16 06:46:37;;;;;;;;;;;;;;;;;;2391987;62;1251;-73
2022/11/16 06:49:10;;;;;;;;;;;;;;;;;;2392286;54;1907;-73
2022/11/16 06:51:43;;;;;;;;;;;;;;;;;;2391886;62;1027;-73
2022/11/16 06:54:16;;;;;;;;;;;;;;;;;;2392209;62;1244;-74
2022/11/16 06:56:52;;;;;;;;;;;;;;;;;;2392245;62;998;-73
2022/11/16 06:59:25;;;;;;;;;;;;;;;;;;2392170;54;883;-73
2022/11/16 07:01:58;;;;;;;;;;;;;;;;;;2392700;54;1038;-74
2022/11/16 07:04:33;;;;;;;;;;;;;;;;;;2392607;62;1129;-74
2022/11/16 07:07:06;;;;;;;;;;;;;;;;;;2393020;62;846;-74
2022/11/16 07:09:39;;;;;;;;;;;;;;;;;;2392466;62;1986;-74
2022/11/16 07:12:15;;;;;;;;;;;;;;;;;;2392638;54;850;-74
2022/11/16 07:14:48;;;;;;;;;;;;;;;;;;2392498;54;1202;-74
2022/11/16 07:17:21;;;;;;;;;;;;;;;;;;2391789;62;1007;-74
2022/11/16 07:19:54;;;;;;;;;;;;;;;;;;2392051;62;882;-74
2022/11/16 07:22:27;;;;;;;;;;;;;;;;;;2392060;62;1013;-74
2022/11/16 07:25:01;;;;;;;;;;;;;;;;;;2392539;62;1202;-74
2022/11/16 07:27:37;;;;;;;;;;;;;;;;;;2391905;62;1038;-74
2022/11/16 07:30:10;;;;;;;;;;;;;;;;;;2392408;54;1971;-74
2022/11/16 07:32:44;;;;;;;;;;;;;;;;;;2392276;62;786;-74
2022/11/16 07:35:17;;;;;;;;;;;;;;;;;;2392444;54;1214;-74
2022/11/16 07:37:50;;;;;;;;;;;;;;;;;;2392331;62;974;-74
2022/11/16 07:40:23;;;;;;;;;;;;;;;;;;2391807;62;1160;-74
2022/11/16 07:43:01;;;;;;;;;;;;;;;;;;2391735;62;1051;-74
2022/11/16 07:45:35;;;;;;;;;;;;;;;;;;2386974;62;1820;-74
2022/11/16 07:48:08;;;;;;;;;;;;;;;;;;2392022;54;823;-74
2022/11/16 07:50:41;;;;;;;;;;;;;;;;;;2391386;62;1916;-74
2022/11/16 07:53:14;;;;;;;;;;;;;;;;;;2389198;62;883;-74
2022/11/16 07:55:53;;;;;;;;;;;;;;;;;;2391363;62;1240;-74
2022/11/16 07:58:30;;;;;;;;;;;;;;;;;;2391979;62;967;-74
2022/11/16 08:01:06;;;;;;;;;;;;;;;;;;2392447;62;1022;-74
2022/11/16 08:03:40;;;;;;;;;;;;;;;;;;2387798;62;1199;-74
2022/11/16 08:06:14;;;;;;;;;;;;;;;;;;2393270;54;1173;-74
2022/11/16 08:08:47;;;;;;;;;;;;;;;;;;2392962;62;1015;-74
2022/11/16 08:11:21;;;;;;;;;;;;;;;;;;2392938;62;1918;-74
2022/11/16 08:13:57;;;;;;;;;;;;;;;;;;2392678;62;997;-75
2022/11/16 08:16:32;;;;;;;;;;;;;;;;;;2392766;62;1117;-74
2022/11/16 08:19:05;;;;;;;;;;;;;;;;;;2393081;54;852;-74
2022/11/16 08:21:38;;;;;;;;;;;;;;;;;;2392989;54;1047;-74
2022/11/16 08:24:11;;;;;;;;;;;;;;;;;;2393204;62;1007;-74
2022/11/16 08:26:44;;;;;;;;;;;;;;;;;;2392955;54;1024;-74
2022/11/16 08:29:20;;;;;;;;;;;;;;;;;;2393379;62;1031;-74
2022/11/16 08:31:53;;;;;;;;;;;;;;;;;;2392863;62;1978;-74
2022/11/16 08:34:26;;;;;;;;;;;;;;;;;;2393029;54;1209;-74
2022/11/16 08:37:00;;;;;;;;;;;;;;;;;;2392950;62;805;-74
2022/11/16 08:39:33;;;;;;;;;;;;;;;;;;2392438;62;1040;-74
2022/11/16 08:42:06;;;;;;;;;;;;;;;;;;2392461;62;1034;-74
2022/11/16 08:44:42;;;;;;;;;;;;;;;;;;2392337;62;1204;-74
2022/11/16 08:47:15;;;;;;;;;;;;;;;;;;2392450;62;1027;-74
2022/11/16 08:49:48;;;;;;;;;;;;;;;;;;2387759;62;1986;-74
2022/11/16 08:52:21;;;;;;;;;;;;;;;;;;2392659;54;1065;-74
2022/11/16 08:54:54;;;;;;;;;;;;;;;;;;2392686;62;1209;-74
2022/11/16 08:57:28;;;;;;;;;;;;;;;;;;2392940;62;1026;-74
2022/11/16 09:00:04;;;;;;;;;;;;;;;;;;2392895;62;1119;-74
2022/11/16 09:02:37;;;;;;;;;;;;;;;;;;2392748;62;1031;-75
2022/11/16 09:05:11;;;;;;;;;;;;;;;;;;2392748;54;1191;-75
2022/11/16 09:07:45;;;;;;;;;;;;;;;;;;2392677;54;807;-74
2022/11/16 09:10:21;;;;;;;;;;;;;;;;;;2393213;62;1968;-75
2022/11/16 09:12:54;;;;;;;;;;;;;;;;;;2396088;62;971;-75
2022/11/16 09:15:30;;;;;;;;;;;;;;;;;;2394995;62;1213;-75
2022/11/16 09:18:04;;;;;;;;;;;;;;;;;;2393508;62;848;-75
2022/11/16 09:20:37;;;;;;;;;;;;;;;;;;2392761;62;1042;-75
2022/11/16 09:23:10;;;;;;;;;;;;;;;;;;2392449;62;1040;-74
2022/11/16 09:25:44;;;;;;;;;;;;;;;;;;2392283;54;1206;-75
2022/11/16 09:28:17;;;;;;;;;;;;;;;;;;2392623;62;965;-74
2022/11/16 09:30:53;;;;;;;;;;;;;;;;;;2392276;62;1907;-75
2022/11/16 09:33:26;;;;;;;;;;;;;;;;;;2392448;62;1030;-75
2022/11/16 09:36:05;;;;;;;;;;;;;;;;;;2388103;54;1181;-74
2022/11/16 09:38:42;;;;;;;;;;;;;;;;;;2392350;62;1031;-75
2022/11/16 09:41:23;;;;;;;;;;;;;;;;;;2392173;54;1028;-75
2022/11/16 09:44:01;;;;;;;;;;;;;;;;;;2388531;62;1169;-75
2022/11/16 09:46:39;;;;;;;;;;;;;;;;;;2387906;62;1484;-75
2022/11/16 09:49:20;;;;;;;;;;;;;;;;;;2392788;62;1026;-75
2022/11/16 09:52:01;;;;;;;;;;;;;;;;;;2388052;62;1934;-75
2022/11/16 10:00:39;;;;;;;;;;;;;;;;;;2388157;54;896;-75
2022/11/16 10:03:18;;;;;;;;;;;;;;;;;;2388613;54;1081;-75
2022/11/16 11:19:29;;;;;;;;;;;;;;;;;;2390320;54;1791;-70
2022/11/16 11:22:02;;;;;;;;;;;;;;;;;;2385766;62;963;-72
2022/11/16 11:24:35;;;;;;;;;;;;;;;;;;2390711;62;1028;-72
2022/11/16 11:27:09;;;;;;;;;;;;;;;;;;2390803;62;1047;-72
2022/11/16 11:29:44;;;;;;;;;;;;;;;;;;2391268;62;1219;-72
2022/11/16 11:32:19;;;;;;;;;;;;;;;;;;2390165;62;1936;-72
2022/11/16 13:03:24;;;;;;;;;;;;;;;;;;2381185;55;648;-76
2022/11/16 13:06:16;;;;;;;;;;;;;;;;;;2378199;62;1011;-76
2022/11/16 13:12:01;;;;;;;;;;;;;;;;;;2375203;54;1980;-76
2022/11/16 13:25:20;;;;;;;;;;;;;;;;;;2389362;54;1528;-76
2022/11/16 13:28:07;;;;;;;;;;;;;;;;;;2391777;54;1128;-76
2022/11/16 13:30:46;;;;;;;;;;;;;;;;;;2387704;62;1925;-77
2022/11/16 13:33:29;;;;;;;;;;;;;;;;;;2388381;62;1432;-76
2022/11/16 13:36:17;;;;;;;;;;;;;;;;;;2388644;62;1297;-76
2022/11/16 13:38:51;;;;;;;;;;;;;;;;;;2388138;54;1254;-76
2022/11/16 13:41:29;;;;;;;;;;;;;;;;;;2392787;62;845;-75
2022/11/16 13:44:06;;;;;;;;;;;;;;;;;;2392713;62;1210;-76
2022/11/16 13:46:42;;;;;;;;;;;;;;;;;;2392642;62;995;-76
2022/11/16 13:49:24;;;;;;;;;;;;;;;;;;2393744;62;841;-76
2022/11/16 13:51:58;;;;;;;;;;;;;;;;;;2390558;62;1903;-76
2022/11/16 13:54:34;;;;;;;;;;;;;;;;;;2393215;54;1121;-76
2022/11/16 13:57:18;;;;;;;;;;;;;;;;;;2388735;62;1196;-76
2022/11/16 13:59:57;;;;;;;;;;;;;;;;;;2388033;62;1129;-76
2022/11/16 14:02:32;;;;;;;;;;;;;;;;;;2388580;62;1300;-76
2022/11/16 14:05:07;;;;;;;;;;;;;;;;;;2392848;62;1212;-77
2022/11/16 14:07:43;;;;;;;;;;;;;;;;;;2388545;62;1489;-76
2022/11/16 14:10:31;;;;;;;;;;;;;;;;;;2392230;55;1001;-76
2022/11/16 14:13:05;;;;;;;;;;;;;;;;;;2392718;62;1980;-76
2022/11/16 14:15:41;;;;;;;;;;;;;;;;;;2386594;62;1169;-76
2022/11/16 14:18:36;;;;;;;;;;;;;;;;;;2388121;62;1227;-76
2022/11/16 14:21:15;;;;;;;;;;;;;;;;;;2388147;62;1377;-76
2022/11/16 14:24:00;;;;;;;;;;;;;;;;;;2388410;54;1209;-76
2022/11/16 14:26:41;;;;;;;;;;;;;;;;;;2388473;62;1410;-76
2022/11/16 14:29:36;;;;;;;;;;;;;;;;;;2387950;62;1133;-75
2022/11/16 14:32:19;;;;;;;;;;;;;;;;;;2385602;54;1955;-76
2022/11/16 14:34:53;;;;;;;;;;;;;;;;;;2388902;62;1427;-76
2022/11/16 14:37:35;;;;;;;;;;;;;;;;;;2392866;62;1025;-76
2022/11/16 14:40:10;;;;;;;;;;;;;;;;;;2387484;62;1149;-76
2022/11/16 14:42:48;;;;;;;;;;;;;;;;;;2388397;54;1418;-76
2022/11/16 14:45:24;;;;;;;;;;;;;;;;;;2388974;62;1389;-76
2022/11/16 14:48:02;;;;;;;;;;;;;;;;;;2388848;62;1192;-77
2022/11/16 14:50:45;;;;;;;;;;;;;;;;;;2387979;62;1259;-76
